createdAt,value
2023-03-13T00:01:19.520Z,6.81
2023-03-13T00:03:48.008Z,6.64
2023-03-13T00:06:16.969Z,6.65
2023-03-13T00:08:46.538Z,6.94
2023-03-13T00:11:16.422Z,6.92
2023-03-13T00:13:45.572Z,6.69
2023-03-13T00:16:15.774Z,6.96
2023-03-13T00:18:46.824Z,6.89
2023-03-13T00:21:15.225Z,7.35
2023-03-13T00:23:43.483Z,6.72
2023-03-13T00:26:14.855Z,6.98
2023-03-13T00:28:45.815Z,6.88
2023-03-13T00:31:14.972Z,7.50
2023-03-13T00:33:44.731Z,6.92
2023-03-13T00:36:15.191Z,6.86
2023-03-13T00:38:43.795Z,6.90
2023-03-13T00:41:14.891Z,7.15
2023-03-13T00:43:44.369Z,6.97
2023-03-13T00:46:14.161Z,7.06
2023-03-13T00:48:42.467Z,6.93
2023-03-13T00:51:11.825Z,7.06
2023-03-13T00:53:40.185Z,7.00
2023-03-13T00:56:10.383Z,7.29
2023-03-13T00:58:42.072Z,7.06
2023-03-13T01:01:11.831Z,7.04
2023-03-13T01:03:40.944Z,7.12
2023-03-13T01:06:11.386Z,7.34
2023-03-13T01:08:39.861Z,7.18
2023-03-13T01:11:10.051Z,7.17
2023-03-13T01:13:40.249Z,7.33
2023-03-13T01:16:11.134Z,7.55
2023-03-13T01:18:42.056Z,7.55
2023-03-13T01:21:10.957Z,7.41
2023-03-13T01:23:39.401Z,6.99
2023-03-13T01:26:09.379Z,7.21
2023-03-13T01:28:39.313Z,7.00
2023-03-13T01:31:14.681Z,7.55
2023-03-13T01:33:43.466Z,7.37
2023-03-13T01:36:12.181Z,7.10
2023-03-13T01:38:40.989Z,7.13
2023-03-13T01:41:12.732Z,7.51
2023-03-13T01:43:42.440Z,7.43
2023-03-13T01:46:16.265Z,7.49
2023-03-13T01:48:51.201Z,7.73
2023-03-13T01:51:22.866Z,7.68
2023-03-13T01:53:52.419Z,8.15
2023-03-13T01:56:24.306Z,7.66
2023-03-13T01:58:54.596Z,7.71
2023-03-13T02:01:24.546Z,7.82
2023-03-13T02:03:53.099Z,7.42
2023-03-13T02:06:21.695Z,7.49
2023-03-13T02:08:54.192Z,7.56
2023-03-13T02:11:31.152Z,7.74
2023-03-13T02:14:01.995Z,7.61
2023-03-13T02:16:30.604Z,7.34
2023-03-13T02:18:58.962Z,7.30
2023-03-13T02:21:38.535Z,7.73
2023-03-13T02:24:14.474Z,7.77
2023-03-13T02:26:44.465Z,7.72
2023-03-13T02:29:18.578Z,7.53
2023-03-13T02:31:48.547Z,7.68
2023-03-13T02:34:20.494Z,7.86
2023-03-13T02:36:49.409Z,7.54
2023-03-13T02:39:20.012Z,7.82
2023-03-13T02:41:50.348Z,8.00
2023-03-13T02:44:18.719Z,7.53
2023-03-13T02:46:50.519Z,7.81
2023-03-13T02:49:23.352Z,8.04
2023-03-13T02:51:52.450Z,7.67
2023-03-13T02:54:22.978Z,7.81
2023-03-13T02:56:56.726Z,7.98
2023-03-13T02:59:25.761Z,7.90
2023-03-13T03:01:54.428Z,7.71
2023-03-13T03:04:23.565Z,7.72
2023-03-13T03:06:52.814Z,7.82
2023-03-13T03:09:21.860Z,7.82
2023-03-13T03:11:50.420Z,7.72
2023-03-13T03:14:20.157Z,8.00
2023-03-13T03:16:49.025Z,7.75
2023-03-13T03:19:17.375Z,7.68
2023-03-13T03:21:46.538Z,7.83
2023-03-13T03:24:14.758Z,7.74
2023-03-13T03:26:43.414Z,7.76
2023-03-13T03:29:11.970Z,7.83
2023-03-13T03:31:42.216Z,8.08
2023-03-13T03:34:10.571Z,7.51
2023-03-13T03:36:39.206Z,7.64
2023-03-13T03:39:09.949Z,7.55
2023-03-13T03:41:38.580Z,7.67
2023-03-13T03:44:07.365Z,7.86
2023-03-13T03:46:35.961Z,7.64
2023-03-13T03:49:05.628Z,8.02
2023-03-13T03:51:34.309Z,7.67
2023-03-13T03:54:02.598Z,7.64
2023-03-13T03:56:31.254Z,7.50
2023-03-13T03:58:59.537Z,7.62
2023-03-13T04:01:28.194Z,7.55
2023-03-13T04:03:56.504Z,7.51
2023-03-13T04:06:26.520Z,7.80
2023-03-13T04:08:55.646Z,7.70
2023-03-13T04:11:24.277Z,7.46
2023-03-13T04:13:52.778Z,7.62
2023-03-13T04:16:21.309Z,7.59
2023-03-13T04:18:49.664Z,7.75
2023-03-13T04:21:18.220Z,7.74
2023-03-13T04:23:48.046Z,8.02
2023-03-13T04:26:16.680Z,7.67
2023-03-13T04:28:45.049Z,7.54
2023-03-13T04:31:13.642Z,7.71
2023-03-13T04:33:42.170Z,7.71
2023-03-13T04:36:11.211Z,7.87
2023-03-13T04:38:39.678Z,7.73
2023-03-13T04:41:09.685Z,8.12
2023-03-13T04:43:37.988Z,7.72
2023-03-13T04:46:06.661Z,7.77
2023-03-13T04:48:35.243Z,7.81
2023-03-13T04:51:03.934Z,7.78
2023-03-13T04:53:32.264Z,7.77
2023-03-13T04:56:01.048Z,7.82
2023-03-13T04:58:30.895Z,8.03
2023-03-13T05:00:59.472Z,7.86
2023-03-13T05:03:27.805Z,7.97
2023-03-13T05:05:56.437Z,7.79
2023-03-13T05:08:24.944Z,7.81
2023-03-13T05:10:53.509Z,7.95
2023-03-13T05:13:21.905Z,7.99
2023-03-13T05:15:51.971Z,8.33
2023-03-13T05:18:20.356Z,7.92
2023-03-13T05:20:49.163Z,8.09
2023-03-13T05:23:17.543Z,8.03
2023-03-13T05:25:46.224Z,8.01
2023-03-13T05:28:14.836Z,8.00
2023-03-13T05:30:43.496Z,7.94
2023-03-13T05:33:13.347Z,8.14
2023-03-13T05:35:41.994Z,7.94
2023-03-13T05:38:10.455Z,8.06
2023-03-13T05:40:38.955Z,7.95
2023-03-13T05:43:07.454Z,8.17
2023-03-13T05:45:36.046Z,8.09
2023-03-13T05:48:04.209Z,8.02
2023-03-13T05:50:34.220Z,8.14
2023-03-13T05:53:02.571Z,7.95
2023-03-13T05:55:31.106Z,8.08
2023-03-13T05:57:59.378Z,8.18
2023-03-13T06:00:28.273Z,8.30
2023-03-13T06:02:56.638Z,8.54
2023-03-13T06:05:25.227Z,8.49
2023-03-13T06:07:55.040Z,9.11
2023-03-13T06:10:26.123Z,9.04
2023-03-13T06:12:55.071Z,9.32
2023-03-13T06:15:24.153Z,9.43
2023-03-13T06:17:52.531Z,9.46
2023-03-13T06:20:22.388Z,9.59
2023-03-13T06:22:50.737Z,9.57
2023-03-13T06:25:20.703Z,9.89
2023-03-13T06:27:49.032Z,9.95
2023-03-13T06:30:17.857Z,9.97
2023-03-13T06:32:51.577Z,10.72
2023-03-13T06:35:20.134Z,10.92
2023-03-13T06:37:48.564Z,11.84
2023-03-13T06:40:17.332Z,12.27
2023-03-13T06:42:47.143Z,13.06
2023-03-13T06:45:15.989Z,12.95
2023-03-13T06:47:44.421Z,13.73
2023-03-13T06:50:13.125Z,14.62
2023-03-13T06:52:44.108Z,15.14
2023-03-13T06:55:12.954Z,16.02
2023-03-13T06:57:41.409Z,14.74
2023-03-13T07:00:13.461Z,14.74
2023-03-13T07:02:42.064Z,13.99
2023-03-13T07:05:14.638Z,13.34
2023-03-13T07:07:43.319Z,12.84
2023-03-13T07:10:13.081Z,13.12
2023-03-13T07:12:41.430Z,14.25
2023-03-13T07:15:12.461Z,15.80
2023-03-13T07:17:40.787Z,16.66
2023-03-13T07:20:11.825Z,17.55
2023-03-13T07:22:40.326Z,17.69
2023-03-13T07:25:10.847Z,17.45
2023-03-13T07:27:39.214Z,17.03
2023-03-13T07:30:08.822Z,17.42
2023-03-13T07:32:38.579Z,17.63
2023-03-13T07:35:07.976Z,17.84
2023-03-13T07:37:36.292Z,18.18
2023-03-13T07:40:05.777Z,18.65
2023-03-13T07:42:34.377Z,18.87
2023-03-13T07:45:03.030Z,19.24
2023-03-13T07:47:31.433Z,19.96
2023-03-13T07:50:01.477Z,21.10
2023-03-13T07:52:29.853Z,21.24
2023-03-13T07:54:58.538Z,21.54
2023-03-13T07:57:27.219Z,21.67
2023-03-13T07:59:55.906Z,22.08
2023-03-13T08:02:24.355Z,22.07
2023-03-13T08:04:54.176Z,22.62
2023-03-13T08:07:23.886Z,23.47
2023-03-13T08:09:52.496Z,23.13
2023-03-13T08:12:20.765Z,23.07
2023-03-13T08:14:49.508Z,23.14
2023-03-13T08:17:17.947Z,23.29
2023-03-13T08:19:46.558Z,22.50
2023-03-13T08:22:14.997Z,22.12
2023-03-13T08:24:45.017Z,22.56
2023-03-13T08:27:13.251Z,23.29
2023-03-13T08:29:44.375Z,24.32
2023-03-13T08:32:15.694Z,25.00
2023-03-13T08:34:44.373Z,25.70
2023-03-13T08:37:16.695Z,26.02
2023-03-13T08:39:48.672Z,25.20
2023-03-13T08:42:17.008Z,24.60
2023-03-13T08:44:46.329Z,24.44
2023-03-13T08:47:14.657Z,24.45
2023-03-13T08:49:43.609Z,24.80
2023-03-13T08:52:12.153Z,25.21
2023-03-13T08:54:40.984Z,24.75
2023-03-13T08:57:10.613Z,24.12
2023-03-13T08:59:39.146Z,23.54
2023-03-13T09:02:07.601Z,23.31
2023-03-13T09:04:36.295Z,23.43
2023-03-13T09:07:04.660Z,23.49
2023-03-13T09:09:33.301Z,23.68
2023-03-13T09:12:01.579Z,24.27
2023-03-13T09:14:31.529Z,25.41
2023-03-13T09:16:59.756Z,26.13
2023-03-13T09:19:28.316Z,26.57
2023-03-13T09:21:56.553Z,27.39
2023-03-13T09:24:25.540Z,28.28
2023-03-13T09:27:01.041Z,28.11
2023-03-13T09:29:33.433Z,28.05
2023-03-13T09:32:02.147Z,28.07
2023-03-13T09:34:32.118Z,28.26
2023-03-13T09:37:00.600Z,28.40
2023-03-13T09:39:29.439Z,28.72
2023-03-13T09:42:06.794Z,29.88
2023-03-13T09:44:41.859Z,28.33
2023-03-13T09:47:13.794Z,25.33
2023-03-13T09:49:44.335Z,24.35
2023-03-13T09:52:17.928Z,24.86
2023-03-13T09:54:50.585Z,25.99
2023-03-13T09:57:24.068Z,26.33
2023-03-13T09:59:57.667Z,26.73
2023-03-13T10:02:32.923Z,27.30
2023-03-13T10:05:07.586Z,26.40
2023-03-13T10:07:35.919Z,24.72
2023-03-13T10:10:08.113Z,24.13
2023-03-13T10:12:40.424Z,23.30
2023-03-13T10:15:34.339Z,22.86
2023-03-13T10:18:13.664Z,23.79
2023-03-13T10:20:42.433Z,24.41
2023-03-13T10:23:16.253Z,25.17
2023-03-13T10:25:44.758Z,25.45
2023-03-13T10:28:16.930Z,26.34
2023-03-13T10:30:49.373Z,27.40
2023-03-13T10:33:25.645Z,28.93
2023-03-13T10:36:06.563Z,30.48
2023-03-13T10:38:37.019Z,29.53
2023-03-13T10:41:10.586Z,28.17
2023-03-13T10:43:51.852Z,26.94
2023-03-13T10:46:29.219Z,25.59
2023-03-13T10:48:58.615Z,23.91
2023-03-13T10:51:39.710Z,22.32
2023-03-13T10:54:26.015Z,21.09
2023-03-13T10:57:14.204Z,20.26
2023-03-13T10:59:44.936Z,19.90
2023-03-13T11:02:36.964Z,19.94
2023-03-13T11:05:33.724Z,19.59
2023-03-13T11:08:13.739Z,18.86
2023-03-13T11:10:54.817Z,18.86
2023-03-13T11:13:37.137Z,18.71
2023-03-13T11:16:24.081Z,19.02
2023-03-13T11:19:12.037Z,18.31
2023-03-13T11:21:46.153Z,18.17
2023-03-13T11:24:17.159Z,17.63
2023-03-13T11:27:01.985Z,17.79
2023-03-13T11:29:38.820Z,17.44
2023-03-13T11:32:15.730Z,16.97
2023-03-13T11:34:48.832Z,16.65
2023-03-13T11:37:19.613Z,16.97
2023-03-13T11:39:55.024Z,16.94
2023-03-13T11:42:55.957Z,17.40
2023-03-13T11:45:46.417Z,17.67
2023-03-13T11:48:20.861Z,17.62
2023-03-13T11:50:53.870Z,17.45
2023-03-13T11:53:34.634Z,17.14
2023-03-13T11:56:10.487Z,17.02
2023-03-13T11:58:45.969Z,17.01
2023-03-13T12:01:16.589Z,16.69
2023-03-13T12:03:56.041Z,16.76
2023-03-13T12:06:31.876Z,17.16
2023-03-13T12:09:05.357Z,16.84
2023-03-13T12:11:35.450Z,16.63
2023-03-13T12:14:06.194Z,17.26
2023-03-13T12:16:42.580Z,17.31
2023-03-13T12:19:16.772Z,17.15
2023-03-13T12:21:50.630Z,17.45
2023-03-13T12:24:24.793Z,17.25
2023-03-13T12:26:56.965Z,17.24
2023-03-13T12:29:35.567Z,17.17
2023-03-13T12:32:06.317Z,16.80
2023-03-13T12:34:38.107Z,16.92
2023-03-13T12:37:12.702Z,16.45
2023-03-13T12:39:44.438Z,16.31
2023-03-13T12:42:22.658Z,16.75
2023-03-13T12:44:51.284Z,16.19
2023-03-13T12:47:28.044Z,16.25
2023-03-13T12:50:25.825Z,16.13
2023-03-13T12:53:22.641Z,15.81
2023-03-13T12:56:02.700Z,15.54
2023-03-13T12:58:41.251Z,15.33
2023-03-13T13:01:15.087Z,15.28
2023-03-13T13:03:52.652Z,15.35
2023-03-13T13:06:21.018Z,15.10
2023-03-13T13:09:09.857Z,15.49
2023-03-13T13:11:49.132Z,15.19
2023-03-13T13:15:00.071Z,15.20
2023-03-13T13:17:34.395Z,14.99
2023-03-13T13:20:32.057Z,15.16
2023-03-13T13:23:28.367Z,14.95
2023-03-13T13:26:48.537Z,14.65
2023-03-13T13:29:59.623Z,14.75
2023-03-13T13:32:48.419Z,14.43
2023-03-13T13:35:31.387Z,14.43
2023-03-13T13:38:23.574Z,14.54
2023-03-13T13:41:05.267Z,14.39
2023-03-13T13:43:35.054Z,13.56
2023-03-13T13:46:09.187Z,13.85
2023-03-13T13:48:39.992Z,13.63
2023-03-13T13:51:26.478Z,13.88
2023-03-13T13:53:57.224Z,13.29
2023-03-13T13:56:43.918Z,13.92
2023-03-13T13:59:37.469Z,13.28
2023-03-13T14:02:22.270Z,13.51
2023-03-13T14:04:54.306Z,13.19
2023-03-13T14:07:27.103Z,13.33
2023-03-13T14:10:03.171Z,13.17
2023-03-13T14:12:34.175Z,13.42
2023-03-13T14:15:19.339Z,13.50
2023-03-13T14:17:49.490Z,13.15
2023-03-13T14:20:32.671Z,13.56
2023-03-13T14:23:02.542Z,13.17
2023-03-13T14:25:43.898Z,13.26
2023-03-13T14:28:22.595Z,13.34
2023-03-13T14:30:52.837Z,13.06
2023-03-13T14:33:21.510Z,12.79
2023-03-13T14:35:50.807Z,12.73
2023-03-13T14:38:20.863Z,12.84
2023-03-13T14:40:49.861Z,12.38
2023-03-13T14:43:30.960Z,12.98
2023-03-13T14:46:00.094Z,12.61
2023-03-13T14:48:32.972Z,12.58
2023-03-13T14:51:15.697Z,12.55
2023-03-13T14:53:55.610Z,12.94
2023-03-13T14:56:32.687Z,12.72
2023-03-13T14:59:27.221Z,13.04
2023-03-13T15:02:00.843Z,12.70
2023-03-13T15:04:52.168Z,13.19
2023-03-13T15:07:22.991Z,12.73
2023-03-13T15:09:52.103Z,12.87
2023-03-13T15:12:22.554Z,12.77
2023-03-13T15:14:53.022Z,12.90
2023-03-13T15:17:22.621Z,12.80
2023-03-13T15:19:55.383Z,13.17
2023-03-13T15:22:29.846Z,12.99
2023-03-13T15:25:07.248Z,12.67
2023-03-13T15:27:36.608Z,12.60
2023-03-13T15:30:07.741Z,12.97
2023-03-13T15:32:38.539Z,13.01
2023-03-13T15:35:23.515Z,13.11
2023-03-13T15:37:52.308Z,12.50
2023-03-13T15:40:21.113Z,12.56
2023-03-13T15:42:49.694Z,12.49
2023-03-13T15:45:19.318Z,12.77
2023-03-13T15:47:48.265Z,12.40
2023-03-13T15:50:18.586Z,12.68
2023-03-13T15:52:47.084Z,12.35
2023-03-13T15:55:15.903Z,12.35
2023-03-13T15:57:47.319Z,12.51
2023-03-13T16:00:21.863Z,12.75
2023-03-13T16:02:50.950Z,12.63
2023-03-13T16:05:19.545Z,12.53
2023-03-13T16:07:48.156Z,12.41
2023-03-13T16:10:19.232Z,12.75
2023-03-13T16:12:47.595Z,13.19
2023-03-13T16:15:16.413Z,12.38
2023-03-13T16:17:46.483Z,12.58
2023-03-13T16:20:17.488Z,12.34
2023-03-13T16:22:46.693Z,12.13
2023-03-13T16:25:15.692Z,12.19
2023-03-13T16:27:44.547Z,12.08
2023-03-13T16:30:19.141Z,12.80
2023-03-13T16:32:49.330Z,12.49
2023-03-13T16:35:17.845Z,12.25
2023-03-13T16:37:46.492Z,12.05
2023-03-13T16:40:19.702Z,12.43
2023-03-13T16:42:48.379Z,12.09
2023-03-13T16:45:16.956Z,12.11
2023-03-13T16:47:46.737Z,12.37
2023-03-13T16:50:24.703Z,12.69
2023-03-13T16:52:53.922Z,12.34
2023-03-13T16:55:28.385Z,12.35
2023-03-13T16:57:57.350Z,11.97
2023-03-13T17:00:27.191Z,12.33
2023-03-13T17:02:59.113Z,12.17
2023-03-13T17:05:29.288Z,12.49
2023-03-13T17:07:57.972Z,12.08
2023-03-13T17:10:28.466Z,12.37
2023-03-13T17:12:57.032Z,12.13
2023-03-13T17:15:26.625Z,12.33
2023-03-13T17:17:55.356Z,12.06
2023-03-13T17:20:25.321Z,12.20
2023-03-13T17:22:56.373Z,12.32
2023-03-13T17:25:24.892Z,12.14
2023-03-13T17:27:53.747Z,12.10
2023-03-13T17:30:25.394Z,12.32
2023-03-13T17:32:54.208Z,12.04
2023-03-13T17:35:23.175Z,12.07
2023-03-13T17:37:51.807Z,11.98
2023-03-13T17:40:23.947Z,12.35
2023-03-13T17:42:52.528Z,12.04
2023-03-13T17:45:20.930Z,12.10
2023-03-13T17:47:50.488Z,12.05
2023-03-13T17:50:20.810Z,12.36
2023-03-13T17:52:49.465Z,12.08
2023-03-13T17:55:18.467Z,12.25
2023-03-13T17:57:48.911Z,12.34
2023-03-13T18:00:26.729Z,12.65
2023-03-13T18:02:55.399Z,12.08
2023-03-13T18:05:25.569Z,12.25
2023-03-13T18:07:55.992Z,12.50
2023-03-13T18:10:25.484Z,12.35
2023-03-13T18:12:55.465Z,12.42
2023-03-13T18:15:25.097Z,12.28
2023-03-13T18:17:54.753Z,12.16
2023-03-13T18:20:26.142Z,12.40
2023-03-13T18:22:59.493Z,12.22
2023-03-13T18:25:28.133Z,12.14
2023-03-13T18:27:58.165Z,12.36
2023-03-13T18:30:27.292Z,12.21
2023-03-13T18:32:56.242Z,12.00
2023-03-13T18:35:24.550Z,12.04
2023-03-13T18:37:53.184Z,11.92
2023-03-13T18:40:24.590Z,12.29
2023-03-13T18:42:53.272Z,11.77
2023-03-13T18:45:24.687Z,12.29
2023-03-13T18:47:53.347Z,12.06
2023-03-13T18:50:26.346Z,12.42
2023-03-13T18:52:56.190Z,12.32
2023-03-13T18:55:25.373Z,12.18
2023-03-13T18:57:54.490Z,12.13
2023-03-13T19:00:26.157Z,12.23
2023-03-13T19:02:54.801Z,11.98
2023-03-13T19:05:23.583Z,12.06
2023-03-13T19:07:52.496Z,12.10
2023-03-13T19:10:24.296Z,12.38
2023-03-13T19:12:54.248Z,12.02
2023-03-13T19:15:26.988Z,12.39
2023-03-13T19:17:57.071Z,12.36
2023-03-13T19:20:25.608Z,12.36
2023-03-13T19:22:56.225Z,12.11
2023-03-13T19:25:24.807Z,12.20
2023-03-13T19:27:53.378Z,11.96
2023-03-13T19:30:24.305Z,12.31
2023-03-13T19:32:53.253Z,12.32
2023-03-13T19:35:22.309Z,12.19
2023-03-13T19:37:51.387Z,12.04
2023-03-13T19:40:21.468Z,12.47
2023-03-13T19:42:50.108Z,12.30
2023-03-13T19:45:20.558Z,12.27
2023-03-13T19:47:50.635Z,12.34
2023-03-13T19:50:20.878Z,12.50
2023-03-13T19:52:49.827Z,12.32
2023-03-13T19:55:18.261Z,12.25
2023-03-13T19:57:46.986Z,12.34
2023-03-13T20:00:21.035Z,12.53
2023-03-13T20:02:52.388Z,12.44
2023-03-13T20:05:20.803Z,12.32
2023-03-13T20:07:49.476Z,12.19
2023-03-13T20:10:17.888Z,12.40
2023-03-13T20:12:46.445Z,12.35
2023-03-13T20:15:14.785Z,12.36
2023-03-13T20:17:44.284Z,12.42
2023-03-13T20:20:14.566Z,12.72
2023-03-13T20:22:43.368Z,12.54
2023-03-13T20:25:11.861Z,12.34
2023-03-13T20:27:40.552Z,12.64
2023-03-13T20:30:10.251Z,12.59
2023-03-13T20:32:49.103Z,12.60
2023-03-13T20:35:26.980Z,13.08
2023-03-13T20:37:57.891Z,12.74
2023-03-13T20:40:26.536Z,12.82
2023-03-13T20:42:55.465Z,12.47
2023-03-13T20:45:24.065Z,12.76
2023-03-13T20:47:52.598Z,12.71
2023-03-13T20:50:21.111Z,12.92
2023-03-13T20:52:51.162Z,13.03
2023-03-13T20:55:19.521Z,12.88
2023-03-13T20:57:48.104Z,12.96
2023-03-13T21:00:16.930Z,12.97
2023-03-13T21:02:46.845Z,13.00
2023-03-13T21:05:15.189Z,12.81
2023-03-13T21:07:44.026Z,12.73
2023-03-13T21:10:13.956Z,12.93
2023-03-13T21:12:42.818Z,12.74
2023-03-13T21:15:12.495Z,13.04
2023-03-13T21:17:41.722Z,12.86
2023-03-13T21:20:11.989Z,13.12
2023-03-13T21:22:41.188Z,12.88
2023-03-13T21:25:11.229Z,12.79
2023-03-13T21:27:43.865Z,12.93
2023-03-13T21:30:14.031Z,12.88
2023-03-13T21:32:42.963Z,12.86
2023-03-13T21:35:12.020Z,12.74
2023-03-13T21:37:40.869Z,12.75
2023-03-13T21:40:10.824Z,12.90
2023-03-13T21:42:41.091Z,12.98
2023-03-13T21:45:10.931Z,12.82
2023-03-13T21:47:40.495Z,12.46
2023-03-13T21:50:11.131Z,12.64
2023-03-13T21:52:41.360Z,12.41
2023-03-13T21:55:12.152Z,12.71
2023-03-13T21:57:42.171Z,12.82
2023-03-13T22:00:14.072Z,12.36
2023-03-13T22:02:44.278Z,12.50
2023-03-13T22:05:12.834Z,12.25
2023-03-13T22:07:41.427Z,12.25
2023-03-13T22:10:10.774Z,12.44
2023-03-13T22:12:39.388Z,12.16
2023-03-13T22:15:10.735Z,12.58
2023-03-13T22:17:39.333Z,12.35
2023-03-13T22:20:10.100Z,12.47
2023-03-13T22:22:38.760Z,12.31
2023-03-13T22:25:07.685Z,12.26
2023-03-13T22:27:36.465Z,12.33
2023-03-13T22:30:05.171Z,12.33
2023-03-13T22:32:35.433Z,12.46
2023-03-13T22:35:04.209Z,12.03
2023-03-13T22:37:32.943Z,11.89
2023-03-13T22:40:01.155Z,12.10
2023-03-13T22:42:29.704Z,12.11
2023-03-13T22:44:58.278Z,12.05
2023-03-13T22:47:27.089Z,12.21
2023-03-13T22:49:59.982Z,12.43
2023-03-13T22:52:31.109Z,12.10
2023-03-13T22:54:59.612Z,12.29
2023-03-13T22:57:30.321Z,12.27
2023-03-13T23:00:00.320Z,12.40
2023-03-13T23:02:30.208Z,12.48
2023-03-13T23:05:01.317Z,12.35
2023-03-13T23:07:31.227Z,12.41
2023-03-13T23:09:59.831Z,12.32
2023-03-13T23:12:30.951Z,12.45
2023-03-13T23:15:00.660Z,12.43
2023-03-13T23:17:31.677Z,12.44
2023-03-13T23:20:01.640Z,12.62
2023-03-13T23:22:33.058Z,12.25
2023-03-13T23:25:01.450Z,12.18
2023-03-13T23:27:30.143Z,12.36
2023-03-13T23:29:58.499Z,12.42
2023-03-13T23:32:27.113Z,12.33
2023-03-13T23:34:55.688Z,12.39
2023-03-13T23:37:25.693Z,12.59
2023-03-13T23:39:53.933Z,12.18
2023-03-13T23:42:22.685Z,12.37
2023-03-13T23:44:50.859Z,12.37
2023-03-13T23:47:19.579Z,12.33
2023-03-13T23:49:48.015Z,12.30
2023-03-13T23:52:16.572Z,12.33
2023-03-13T23:54:46.126Z,12.38
2023-03-13T23:57:14.702Z,12.08
2023-03-13T23:59:43.225Z,12.27
